sensor_id;sensor_type;location;lat;lon;timestamp;P1;durP1;ratioP1;P2;durP2;ratioP2
54259;SDS011;40172;53.022;7.012;2022-08-07T00:01:18;9.27;;;7.20;;
54259;SDS011;40172;53.022;7.012;2022-08-07T00:03:45;7.82;;;6.70;;
54259;SDS011;40172;53.022;7.012;2022-08-07T00:06:11;11.98;;;6.88;;
54259;SDS011;40172;53.022;7.012;2022-08-07T00:08:37;10.00;;;7.38;;
54259;SDS011;40172;53.022;7.012;2022-08-07T00:11:03;11.07;;;7.82;;
54259;SDS011;40172;53.022;7.012;2022-08-07T00:13:29;15.27;;;10.65;;
54259;SDS011;40172;53.022;7.012;2022-08-07T00:15:55;10.32;;;8.05;;
54259;SDS011;40172;53.022;7.012;2022-08-07T00:18:22;14.85;;;9.52;;
54259;SDS011;40172;53.022;7.012;2022-08-07T00:20:49;17.48;;;11.45;;
54259;SDS011;40172;53.022;7.012;2022-08-07T00:23:16;44.03;;;11.98;;
54259;SDS011;40172;53.022;7.012;2022-08-07T00:25:42;36.85;;;11.68;;
54259;SDS011;40172;53.022;7.012;2022-08-07T00:28:07;35.08;;;11.82;;
54259;SDS011;40172;53.022;7.012;2022-08-07T00:30:33;20.15;;;9.70;;
54259;SDS011;40172;53.022;7.012;2022-08-07T00:32:59;18.60;;;9.80;;
54259;SDS011;40172;53.022;7.012;2022-08-07T00:35:26;11.82;;;8.70;;
54259;SDS011;40172;53.022;7.012;2022-08-07T00:37:52;12.70;;;8.32;;
54259;SDS011;40172;53.022;7.012;2022-08-07T00:40:19;9.00;;;6.00;;
54259;SDS011;40172;53.022;7.012;2022-08-07T00:42:45;12.68;;;6.65;;
54259;SDS011;40172;53.022;7.012;2022-08-07T00:45:11;12.32;;;7.60;;
54259;SDS011;40172;53.022;7.012;2022-08-07T00:47:37;9.98;;;7.10;;
54259;SDS011;40172;53.022;7.012;2022-08-07T00:50:03;9.00;;;6.97;;
54259;SDS011;40172;53.022;7.012;2022-08-07T00:52:29;45.70;;;40.75;;
54259;SDS011;40172;53.022;7.012;2022-08-07T00:54:55;15.25;;;9.05;;
54259;SDS011;40172;53.022;7.012;2022-08-07T00:57:23;13.38;;;8.40;;
54259;SDS011;40172;53.022;7.012;2022-08-07T00:59:50;11.77;;;9.15;;
54259;SDS011;40172;53.022;7.012;2022-08-07T01:02:16;15.50;;;9.15;;
54259;SDS011;40172;53.022;7.012;2022-08-07T01:04:43;11.27;;;7.93;;
54259;SDS011;40172;53.022;7.012;2022-08-07T01:07:09;15.20;;;10.75;;
54259;SDS011;40172;53.022;7.012;2022-08-07T01:09:36;11.70;;;8.90;;
54259;SDS011;40172;53.022;7.012;2022-08-07T01:12:02;14.90;;;8.30;;
54259;SDS011;40172;53.022;7.012;2022-08-07T01:14:28;13.25;;;9.02;;
54259;SDS011;40172;53.022;7.012;2022-08-07T01:16:54;13.20;;;8.88;;
54259;SDS011;40172;53.022;7.012;2022-08-07T01:19:20;11.15;;;9.00;;
54259;SDS011;40172;53.022;7.012;2022-08-07T01:21:47;16.25;;;10.73;;
54259;SDS011;40172;53.022;7.012;2022-08-07T01:24:16;20.33;;;12.93;;
54259;SDS011;40172;53.022;7.012;2022-08-07T01:26:43;19.73;;;13.70;;
54259;SDS011;40172;53.022;7.012;2022-08-07T01:29:09;23.33;;;13.35;;
54259;SDS011;40172;53.022;7.012;2022-08-07T01:31:38;19.05;;;12.88;;
54259;SDS011;40172;53.022;7.012;2022-08-07T01:34:03;19.98;;;12.63;;
54259;SDS011;40172;53.022;7.012;2022-08-07T01:36:30;21.45;;;14.77;;
54259;SDS011;40172;53.022;7.012;2022-08-07T01:38:56;25.70;;;14.52;;
54259;SDS011;40172;53.022;7.012;2022-08-07T01:41:23;25.48;;;14.88;;
54259;SDS011;40172;53.022;7.012;2022-08-07T01:43:49;27.42;;;14.18;;
54259;SDS011;40172;53.022;7.012;2022-08-07T01:46:16;22.38;;;13.23;;
54259;SDS011;40172;53.022;7.012;2022-08-07T01:48:43;17.15;;;11.52;;
54259;SDS011;40172;53.022;7.012;2022-08-07T01:51:11;16.63;;;11.25;;
54259;SDS011;40172;53.022;7.012;2022-08-07T01:53:41;16.40;;;10.73;;
54259;SDS011;40172;53.022;7.012;2022-08-07T01:56:33;20.30;;;12.55;;
54259;SDS011;40172;53.022;7.012;2022-08-07T01:59:12;21.85;;;13.02;;
54259;SDS011;40172;53.022;7.012;2022-08-07T02:01:44;22.50;;;13.10;;
54259;SDS011;40172;53.022;7.012;2022-08-07T02:04:17;20.98;;;13.73;;
54259;SDS011;40172;53.022;7.012;2022-08-07T02:06:50;19.30;;;12.98;;
54259;SDS011;40172;53.022;7.012;2022-08-07T02:09:20;22.60;;;12.73;;
54259;SDS011;40172;53.022;7.012;2022-08-07T02:11:48;22.02;;;12.32;;
54259;SDS011;40172;53.022;7.012;2022-08-07T02:14:16;23.05;;;13.50;;
54259;SDS011;40172;53.022;7.012;2022-08-07T02:16:43;21.75;;;14.40;;
54259;SDS011;40172;53.022;7.012;2022-08-07T02:19:12;24.65;;;13.48;;
54259;SDS011;40172;53.022;7.012;2022-08-07T02:21:40;17.67;;;12.40;;
54259;SDS011;40172;53.022;7.012;2022-08-07T02:24:07;24.25;;;13.63;;
54259;SDS011;40172;53.022;7.012;2022-08-07T02:26:34;23.10;;;14.48;;
54259;SDS011;40172;53.022;7.012;2022-08-07T02:29:02;16.15;;;13.50;;
54259;SDS011;40172;53.022;7.012;2022-08-07T02:31:30;12.77;;;7.20;;
54259;SDS011;40172;53.022;7.012;2022-08-07T02:33:57;11.02;;;8.38;;
54259;SDS011;40172;53.022;7.012;2022-08-07T02:36:26;12.18;;;9.00;;
54259;SDS011;40172;53.022;7.012;2022-08-07T02:38:53;12.73;;;9.07;;
54259;SDS011;40172;53.022;7.012;2022-08-07T02:41:23;13.05;;;8.15;;
54259;SDS011;40172;53.022;7.012;2022-08-07T02:43:50;16.65;;;8.93;;
54259;SDS011;40172;53.022;7.012;2022-08-07T02:46:17;15.63;;;8.60;;
54259;SDS011;40172;53.022;7.012;2022-08-07T02:48:45;19.60;;;12.70;;
54259;SDS011;40172;53.022;7.012;2022-08-07T02:51:12;14.60;;;11.50;;
54259;SDS011;40172;53.022;7.012;2022-08-07T02:53:42;18.20;;;11.98;;
54259;SDS011;40172;53.022;7.012;2022-08-07T02:56:11;17.75;;;11.73;;
54259;SDS011;40172;53.022;7.012;2022-08-07T02:58:39;17.92;;;11.68;;
54259;SDS011;40172;53.022;7.012;2022-08-07T03:01:06;15.93;;;10.50;;
54259;SDS011;40172;53.022;7.012;2022-08-07T03:03:34;18.02;;;12.20;;
54259;SDS011;40172;53.022;7.012;2022-08-07T03:06:01;18.50;;;13.82;;
54259;SDS011;40172;53.022;7.012;2022-08-07T03:08:27;22.13;;;13.90;;
54259;SDS011;40172;53.022;7.012;2022-08-07T03:10:54;17.65;;;11.65;;
54259;SDS011;40172;53.022;7.012;2022-08-07T03:13:21;15.88;;;11.98;;
54259;SDS011;40172;53.022;7.012;2022-08-07T03:15:47;16.15;;;12.25;;
54259;SDS011;40172;53.022;7.012;2022-08-07T03:18:14;18.13;;;12.65;;
54259;SDS011;40172;53.022;7.012;2022-08-07T03:20:41;14.05;;;10.75;;
54259;SDS011;40172;53.022;7.012;2022-08-07T03:23:08;11.63;;;10.00;;
54259;SDS011;40172;53.022;7.012;2022-08-07T03:25:36;14.10;;;11.90;;
54259;SDS011;40172;53.022;7.012;2022-08-07T03:28:04;13.77;;;10.27;;
54259;SDS011;40172;53.022;7.012;2022-08-07T03:30:31;12.15;;;8.65;;
54259;SDS011;40172;53.022;7.012;2022-08-07T03:32:59;11.05;;;7.93;;
54259;SDS011;40172;53.022;7.012;2022-08-07T03:35:26;9.73;;;7.40;;
54259;SDS011;40172;53.022;7.012;2022-08-07T03:37:58;7.95;;;7.15;;
54259;SDS011;40172;53.022;7.012;2022-08-07T03:40:27;9.00;;;7.57;;
54259;SDS011;40172;53.022;7.012;2022-08-07T03:42:53;11.00;;;8.10;;
54259;SDS011;40172;53.022;7.012;2022-08-07T03:45:20;12.73;;;9.52;;
54259;SDS011;40172;53.022;7.012;2022-08-07T03:47:47;16.90;;;11.75;;
54259;SDS011;40172;53.022;7.012;2022-08-07T03:50:14;17.52;;;12.43;;
54259;SDS011;40172;53.022;7.012;2022-08-07T03:52:41;16.15;;;10.18;;
54259;SDS011;40172;53.022;7.012;2022-08-07T03:55:09;18.92;;;11.77;;
54259;SDS011;40172;53.022;7.012;2022-08-07T03:57:35;12.88;;;9.25;;
54259;SDS011;40172;53.022;7.012;2022-08-07T04:00:01;20.67;;;9.80;;
54259;SDS011;40172;53.022;7.012;2022-08-07T04:02:28;15.23;;;9.88;;
54259;SDS011;40172;53.022;7.012;2022-08-07T04:04:54;13.88;;;10.43;;
54259;SDS011;40172;53.022;7.012;2022-08-07T04:07:20;12.50;;;9.48;;
54259;SDS011;40172;53.022;7.012;2022-08-07T04:09:46;14.65;;;10.57;;
54259;SDS011;40172;53.022;7.012;2022-08-07T04:12:13;13.38;;;10.00;;
54259;SDS011;40172;53.022;7.012;2022-08-07T04:14:39;16.77;;;10.50;;
54259;SDS011;40172;53.022;7.012;2022-08-07T04:17:06;14.65;;;10.77;;
54259;SDS011;40172;53.022;7.012;2022-08-07T04:19:32;16.25;;;11.50;;
54259;SDS011;40172;53.022;7.012;2022-08-07T04:21:58;15.00;;;10.23;;
54259;SDS011;40172;53.022;7.012;2022-08-07T04:24:24;15.80;;;11.18;;
54259;SDS011;40172;53.022;7.012;2022-08-07T04:26:50;17.63;;;12.45;;
54259;SDS011;40172;53.022;7.012;2022-08-07T04:29:16;15.10;;;9.98;;
54259;SDS011;40172;53.022;7.012;2022-08-07T04:31:42;15.02;;;10.73;;
54259;SDS011;40172;53.022;7.012;2022-08-07T04:34:08;15.23;;;11.32;;
54259;SDS011;40172;53.022;7.012;2022-08-07T04:36:34;17.67;;;12.57;;
54259;SDS011;40172;53.022;7.012;2022-08-07T04:39:00;15.30;;;11.55;;
54259;SDS011;40172;53.022;7.012;2022-08-07T04:41:27;16.15;;;11.55;;
54259;SDS011;40172;53.022;7.012;2022-08-07T04:43:52;11.60;;;9.57;;
54259;SDS011;40172;53.022;7.012;2022-08-07T05:00:14;10.45;;;8.13;;
54259;SDS011;40172;53.022;7.012;2022-08-07T05:02:53;10.60;;;8.27;;
54259;SDS011;40172;53.022;7.012;2022-08-07T05:05:29;11.50;;;8.00;;
54259;SDS011;40172;53.022;7.012;2022-08-07T05:08:12;10.20;;;7.95;;
54259;SDS011;40172;53.022;7.012;2022-08-07T05:10:45;9.70;;;8.60;;
54259;SDS011;40172;53.022;7.012;2022-08-07T05:13:27;8.73;;;7.05;;
54259;SDS011;40172;53.022;7.012;2022-08-07T05:16:01;8.23;;;6.75;;
54259;SDS011;40172;53.022;7.012;2022-08-07T05:18:31;7.78;;;6.55;;
54259;SDS011;40172;53.022;7.012;2022-08-07T05:21:04;8.15;;;7.03;;
54259;SDS011;40172;53.022;7.012;2022-08-07T05:23:41;8.30;;;7.30;;
54259;SDS011;40172;53.022;7.012;2022-08-07T05:26:13;8.02;;;7.20;;
54259;SDS011;40172;53.022;7.012;2022-08-07T05:28:43;10.45;;;7.55;;
54259;SDS011;40172;53.022;7.012;2022-08-07T05:31:10;10.35;;;8.00;;
54259;SDS011;40172;53.022;7.012;2022-08-07T05:33:37;10.98;;;8.75;;
54259;SDS011;40172;53.022;7.012;2022-08-07T05:36:05;13.23;;;10.60;;
54259;SDS011;40172;53.022;7.012;2022-08-07T05:38:31;17.33;;;12.75;;
54259;SDS011;40172;53.022;7.012;2022-08-07T05:40:58;15.70;;;12.48;;
54259;SDS011;40172;53.022;7.012;2022-08-07T05:43:25;16.25;;;12.27;;
54259;SDS011;40172;53.022;7.012;2022-08-07T05:45:51;17.20;;;12.13;;
54259;SDS011;40172;53.022;7.012;2022-08-07T05:48:17;17.65;;;12.90;;
54259;SDS011;40172;53.022;7.012;2022-08-07T05:50:44;17.42;;;12.52;;
54259;SDS011;40172;53.022;7.012;2022-08-07T05:53:10;18.63;;;13.57;;
54259;SDS011;40172;53.022;7.012;2022-08-07T05:55:36;18.15;;;12.63;;
54259;SDS011;40172;53.022;7.012;2022-08-07T05:58:02;16.20;;;12.30;;
54259;SDS011;40172;53.022;7.012;2022-08-07T06:00:30;16.30;;;13.35;;
54259;SDS011;40172;53.022;7.012;2022-08-07T06:02:59;19.17;;;13.65;;
54259;SDS011;40172;53.022;7.012;2022-08-07T06:05:27;17.25;;;13.95;;
54259;SDS011;40172;53.022;7.012;2022-08-07T06:07:56;19.52;;;14.75;;
54259;SDS011;40172;53.022;7.012;2022-08-07T06:10:24;20.88;;;14.35;;
54259;SDS011;40172;53.022;7.012;2022-08-07T06:12:50;19.92;;;13.52;;
54259;SDS011;40172;53.022;7.012;2022-08-07T06:15:16;18.98;;;13.98;;
54259;SDS011;40172;53.022;7.012;2022-08-07T06:17:43;20.23;;;15.30;;
54259;SDS011;40172;53.022;7.012;2022-08-07T06:20:10;20.00;;;14.98;;
54259;SDS011;40172;53.022;7.012;2022-08-07T06:22:36;18.48;;;14.00;;
54259;SDS011;40172;53.022;7.012;2022-08-07T06:25:06;18.77;;;14.55;;
54259;SDS011;40172;53.022;7.012;2022-08-07T06:27:32;24.20;;;14.43;;
54259;SDS011;40172;53.022;7.012;2022-08-07T06:29:59;21.05;;;15.05;;
54259;SDS011;40172;53.022;7.012;2022-08-07T06:32:25;21.08;;;14.85;;
54259;SDS011;40172;53.022;7.012;2022-08-07T06:34:50;21.75;;;14.77;;
54259;SDS011;40172;53.022;7.012;2022-08-07T06:37:16;24.98;;;15.02;;
54259;SDS011;40172;53.022;7.012;2022-08-07T06:39:42;19.27;;;14.15;;
54259;SDS011;40172;53.022;7.012;2022-08-07T06:42:11;18.58;;;14.48;;
54259;SDS011;40172;53.022;7.012;2022-08-07T06:44:42;18.55;;;13.32;;
54259;SDS011;40172;53.022;7.012;2022-08-07T06:47:09;19.20;;;13.88;;
54259;SDS011;40172;53.022;7.012;2022-08-07T06:49:35;17.80;;;12.98;;
54259;SDS011;40172;53.022;7.012;2022-08-07T06:52:01;17.85;;;13.25;;
54259;SDS011;40172;53.022;7.012;2022-08-07T06:54:27;17.77;;;12.80;;
54259;SDS011;40172;53.022;7.012;2022-08-07T06:56:54;15.50;;;12.30;;
54259;SDS011;40172;53.022;7.012;2022-08-07T06:59:23;16.45;;;12.25;;
54259;SDS011;40172;53.022;7.012;2022-08-07T07:01:51;16.45;;;10.82;;
54259;SDS011;40172;53.022;7.012;2022-08-07T07:04:18;16.95;;;11.43;;
54259;SDS011;40172;53.022;7.012;2022-08-07T07:06:44;16.33;;;10.55;;
54259;SDS011;40172;53.022;7.012;2022-08-07T07:09:17;15.18;;;10.50;;
54259;SDS011;40172;53.022;7.012;2022-08-07T07:14:24;17.25;;;9.95;;
54259;SDS011;40172;53.022;7.012;2022-08-07T07:16:58;13.38;;;8.45;;
54259;SDS011;40172;53.022;7.012;2022-08-07T07:19:32;11.68;;;7.55;;
54259;SDS011;40172;53.022;7.012;2022-08-07T07:22:03;8.50;;;6.60;;
54259;SDS011;40172;53.022;7.012;2022-08-07T07:24:29;11.07;;;6.47;;
54259;SDS011;40172;53.022;7.012;2022-08-07T07:26:55;10.35;;;6.50;;
54259;SDS011;40172;53.022;7.012;2022-08-07T07:29:25;7.95;;;6.13;;
54259;SDS011;40172;53.022;7.012;2022-08-07T07:31:54;8.93;;;6.53;;
54259;SDS011;40172;53.022;7.012;2022-08-07T07:34:22;9.23;;;7.20;;
54259;SDS011;40172;53.022;7.012;2022-08-07T07:36:52;5.72;;;4.95;;
54259;SDS011;40172;53.022;7.012;2022-08-07T07:39:19;4.38;;;3.45;;
54259;SDS011;40172;53.022;7.012;2022-08-07T07:41:48;4.85;;;2.70;;
54259;SDS011;40172;53.022;7.012;2022-08-07T07:44:15;6.22;;;3.72;;
54259;SDS011;40172;53.022;7.012;2022-08-07T07:46:42;5.78;;;4.60;;
54259;SDS011;40172;53.022;7.012;2022-08-07T07:49:09;4.55;;;3.30;;
54259;SDS011;40172;53.022;7.012;2022-08-07T07:51:38;4.68;;;3.38;;
54259;SDS011;40172;53.022;7.012;2022-08-07T07:54:06;5.35;;;3.78;;
54259;SDS011;40172;53.022;7.012;2022-08-07T07:56:32;7.07;;;3.58;;
54259;SDS011;40172;53.022;7.012;2022-08-07T07:59:00;6.30;;;3.50;;
54259;SDS011;40172;53.022;7.012;2022-08-07T08:01:31;4.63;;;3.42;;
54259;SDS011;40172;53.022;7.012;2022-08-07T08:03:59;4.10;;;3.47;;
54259;SDS011;40172;53.022;7.012;2022-08-07T08:06:28;4.97;;;3.05;;
54259;SDS011;40172;53.022;7.012;2022-08-07T08:08:57;5.00;;;2.20;;
54259;SDS011;40172;53.022;7.012;2022-08-07T08:11:26;5.45;;;2.95;;
54259;SDS011;40172;53.022;7.012;2022-08-07T08:13:52;4.03;;;2.33;;
54259;SDS011;40172;53.022;7.012;2022-08-07T08:16:18;3.42;;;2.97;;
54259;SDS011;40172;53.022;7.012;2022-08-07T08:18:47;4.00;;;3.00;;
54259;SDS011;40172;53.022;7.012;2022-08-07T08:21:15;2.95;;;2.22;;
54259;SDS011;40172;53.022;7.012;2022-08-07T08:24:04;3.60;;;2.35;;
54259;SDS011;40172;53.022;7.012;2022-08-07T08:26:50;3.20;;;2.35;;
54259;SDS011;40172;53.022;7.012;2022-08-07T08:29:41;4.20;;;2.63;;
54259;SDS011;40172;53.022;7.012;2022-08-07T08:32:10;4.78;;;2.80;;
54259;SDS011;40172;53.022;7.012;2022-08-07T08:34:39;4.85;;;2.35;;
54259;SDS011;40172;53.022;7.012;2022-08-07T08:37:05;4.68;;;2.53;;
54259;SDS011;40172;53.022;7.012;2022-08-07T08:39:33;5.50;;;2.30;;
54259;SDS011;40172;53.022;7.012;2022-08-07T08:42:10;3.70;;;2.00;;
54259;SDS011;40172;53.022;7.012;2022-08-07T08:44:49;6.00;;;2.15;;
54259;SDS011;40172;53.022;7.012;2022-08-07T08:50:39;3.83;;;2.20;;
54259;SDS011;40172;53.022;7.012;2022-08-07T08:55:50;4.25;;;2.45;;
54259;SDS011;40172;53.022;7.012;2022-08-07T09:01:30;3.28;;;2.70;;
54259;SDS011;40172;53.022;7.012;2022-08-07T09:04:06;3.38;;;2.67;;
54259;SDS011;40172;53.022;7.012;2022-08-07T09:20:26;4.32;;;2.55;;
54259;SDS011;40172;53.022;7.012;2022-08-07T09:23:19;4.22;;;2.50;;
54259;SDS011;40172;53.022;7.012;2022-08-07T09:26:12;5.65;;;2.60;;
54259;SDS011;40172;53.022;7.012;2022-08-07T09:28:53;5.85;;;3.08;;
54259;SDS011;40172;53.022;7.012;2022-08-07T09:31:44;3.72;;;2.60;;
54259;SDS011;40172;53.022;7.012;2022-08-07T09:34:41;8.75;;;2.92;;
54259;SDS011;40172;53.022;7.012;2022-08-07T09:37:44;4.18;;;2.58;;
54259;SDS011;40172;53.022;7.012;2022-08-07T09:40:18;5.38;;;2.50;;
54259;SDS011;40172;53.022;7.012;2022-08-07T09:42:57;3.85;;;2.70;;
54259;SDS011;40172;53.022;7.012;2022-08-07T09:48:21;5.15;;;2.50;;
54259;SDS011;40172;53.022;7.012;2022-08-07T09:53:48;3.00;;;2.42;;
54259;SDS011;40172;53.022;7.012;2022-08-07T10:05:24;4.13;;;2.38;;
54259;SDS011;40172;53.022;7.012;2022-08-07T10:08:08;4.82;;;2.58;;
54259;SDS011;40172;53.022;7.012;2022-08-07T10:11:02;3.13;;;2.33;;
54259;SDS011;40172;53.022;7.012;2022-08-07T10:13:38;3.58;;;2.20;;
54259;SDS011;40172;53.022;7.012;2022-08-07T10:16:45;2.92;;;1.98;;
54259;SDS011;40172;53.022;7.012;2022-08-07T10:19:23;3.88;;;2.00;;
54259;SDS011;40172;53.022;7.012;2022-08-07T10:27:35;3.88;;;2.00;;
54259;SDS011;40172;53.022;7.012;2022-08-07T10:35:52;3.40;;;2.33;;
54259;SDS011;40172;53.022;7.012;2022-08-07T10:41:22;4.18;;;2.38;;
54259;SDS011;40172;53.022;7.012;2022-08-07T10:43:59;4.97;;;2.20;;
54259;SDS011;40172;53.022;7.012;2022-08-07T10:46:42;3.90;;;2.13;;
54259;SDS011;40172;53.022;7.012;2022-08-07T10:52:19;3.15;;;2.33;;
54259;SDS011;40172;53.022;7.012;2022-08-07T10:54:55;4.30;;;2.20;;
54259;SDS011;40172;53.022;7.012;2022-08-07T11:00:07;5.80;;;2.25;;
54259;SDS011;40172;53.022;7.012;2022-08-07T11:05:44;4.22;;;2.17;;
54259;SDS011;40172;53.022;7.012;2022-08-07T11:16:03;6.15;;;2.28;;
54259;SDS011;40172;53.022;7.012;2022-08-07T11:18:35;4.30;;;2.20;;
54259;SDS011;40172;53.022;7.012;2022-08-07T11:21:26;3.92;;;2.10;;
54259;SDS011;40172;53.022;7.012;2022-08-07T11:24:11;3.03;;;2.10;;
54259;SDS011;40172;53.022;7.012;2022-08-07T11:26:54;2.30;;;2.10;;
54259;SDS011;40172;53.022;7.012;2022-08-07T11:29:43;2.35;;;1.60;;
54259;SDS011;40172;53.022;7.012;2022-08-07T11:32:36;3.78;;;2.17;;
54259;SDS011;40172;53.022;7.012;2022-08-07T11:35:14;4.53;;;2.10;;
54259;SDS011;40172;53.022;7.012;2022-08-07T11:38:32;3.63;;;1.90;;
54259;SDS011;40172;53.022;7.012;2022-08-07T11:40:54;5.38;;;2.13;;
54259;SDS011;40172;53.022;7.012;2022-08-07T11:43:27;3.08;;;2.17;;
54259;SDS011;40172;53.022;7.012;2022-08-07T11:57:00;4.03;;;1.85;;
54259;SDS011;40172;53.022;7.012;2022-08-07T11:59:43;4.47;;;2.00;;
54259;SDS011;40172;53.022;7.012;2022-08-07T12:05:37;3.03;;;1.63;;
54259;SDS011;40172;53.022;7.012;2022-08-07T12:08:25;2.63;;;1.70;;
54259;SDS011;40172;53.022;7.012;2022-08-07T12:16:15;2.92;;;1.67;;
54259;SDS011;40172;53.022;7.012;2022-08-07T12:18:54;5.00;;;1.80;;
54259;SDS011;40172;53.022;7.012;2022-08-07T12:24:33;2.30;;;1.80;;
54259;SDS011;40172;53.022;7.012;2022-08-07T12:27:32;3.72;;;1.75;;
54259;SDS011;40172;53.022;7.012;2022-08-07T12:30:04;2.60;;;1.90;;
54259;SDS011;40172;53.022;7.012;2022-08-07T12:37:42;3.15;;;1.90;;
54259;SDS011;40172;53.022;7.012;2022-08-07T12:40:11;2.50;;;1.70;;
54259;SDS011;40172;53.022;7.012;2022-08-07T12:42:40;2.55;;;1.60;;
54259;SDS011;40172;53.022;7.012;2022-08-07T12:45:08;3.60;;;1.80;;
54259;SDS011;40172;53.022;7.012;2022-08-07T12:47:53;2.42;;;1.50;;
54259;SDS011;40172;53.022;7.012;2022-08-07T12:56:09;2.58;;;1.65;;
54259;SDS011;40172;53.022;7.012;2022-08-07T12:58:44;3.03;;;1.50;;
54259;SDS011;40172;53.022;7.012;2022-08-07T13:17:56;2.55;;;1.85;;
54259;SDS011;40172;53.022;7.012;2022-08-07T13:20:43;2.55;;;1.60;;
54259;SDS011;40172;53.022;7.012;2022-08-07T13:23:16;2.33;;;1.50;;
54259;SDS011;40172;53.022;7.012;2022-08-07T13:25:54;4.75;;;1.70;;
54259;SDS011;40172;53.022;7.012;2022-08-07T13:29:09;2.42;;;1.60;;
54259;SDS011;40172;53.022;7.012;2022-08-07T13:31:24;5.38;;;1.80;;
54259;SDS011;40172;53.022;7.012;2022-08-07T13:34:02;5.28;;;1.60;;
54259;SDS011;40172;53.022;7.012;2022-08-07T13:36:40;4.38;;;2.08;;
54259;SDS011;40172;53.022;7.012;2022-08-07T13:42:03;3.03;;;1.60;;
54259;SDS011;40172;53.022;7.012;2022-08-07T13:44:34;2.28;;;1.73;;
54259;SDS011;40172;53.022;7.012;2022-08-07T13:47:02;4.22;;;1.88;;
54259;SDS011;40172;53.022;7.012;2022-08-07T13:49:34;2.92;;;1.40;;
54259;SDS011;40172;53.022;7.012;2022-08-07T13:52:07;3.63;;;1.40;;
54259;SDS011;40172;53.022;7.012;2022-08-07T13:54:35;3.55;;;1.40;;
54259;SDS011;40172;53.022;7.012;2022-08-07T13:57:04;2.22;;;1.40;;
54259;SDS011;40172;53.022;7.012;2022-08-07T13:59:36;1.98;;;1.50;;
54259;SDS011;40172;53.022;7.012;2022-08-07T14:02:08;5.55;;;1.60;;
54259;SDS011;40172;53.022;7.012;2022-08-07T14:04:47;2.47;;;1.60;;
54259;SDS011;40172;53.022;7.012;2022-08-07T14:07:16;3.17;;;1.50;;
54259;SDS011;40172;53.022;7.012;2022-08-07T14:09:45;1.50;;;1.35;;
54259;SDS011;40172;53.022;7.012;2022-08-07T14:15:00;4.45;;;1.75;;
54259;SDS011;40172;53.022;7.012;2022-08-07T14:17:28;2.10;;;1.50;;
54259;SDS011;40172;53.022;7.012;2022-08-07T14:19:59;1.98;;;1.48;;
54259;SDS011;40172;53.022;7.012;2022-08-07T14:22:35;6.63;;;1.70;;
54259;SDS011;40172;53.022;7.012;2022-08-07T14:25:12;2.05;;;1.40;;
54259;SDS011;40172;53.022;7.012;2022-08-07T14:27:47;3.50;;;1.60;;
54259;SDS011;40172;53.022;7.012;2022-08-07T14:30:16;5.18;;;1.60;;
54259;SDS011;40172;53.022;7.012;2022-08-07T14:32:44;2.28;;;1.50;;
54259;SDS011;40172;53.022;7.012;2022-08-07T14:35:18;2.78;;;1.58;;
54259;SDS011;40172;53.022;7.012;2022-08-07T14:37:46;4.70;;;1.60;;
54259;SDS011;40172;53.022;7.012;2022-08-07T14:40:17;1.90;;;1.70;;
54259;SDS011;40172;53.022;7.012;2022-08-07T14:43:07;6.72;;;1.70;;
54259;SDS011;40172;53.022;7.012;2022-08-07T14:45:41;4.25;;;1.88;;
54259;SDS011;40172;53.022;7.012;2022-08-07T14:48:12;5.45;;;1.90;;
54259;SDS011;40172;53.022;7.012;2022-08-07T14:50:44;4.38;;;2.10;;
54259;SDS011;40172;53.022;7.012;2022-08-07T14:53:16;2.00;;;1.80;;
54259;SDS011;40172;53.022;7.012;2022-08-07T14:55:44;3.92;;;1.90;;
54259;SDS011;40172;53.022;7.012;2022-08-07T14:58:11;4.38;;;1.70;;
54259;SDS011;40172;53.022;7.012;2022-08-07T15:00:38;2.92;;;1.63;;
54259;SDS011;40172;53.022;7.012;2022-08-07T15:03:08;2.45;;;1.55;;
54259;SDS011;40172;53.022;7.012;2022-08-07T15:05:35;3.28;;;1.92;;
54259;SDS011;40172;53.022;7.012;2022-08-07T15:08:05;5.80;;;1.92;;
54259;SDS011;40172;53.022;7.012;2022-08-07T15:10:33;4.72;;;1.80;;
54259;SDS011;40172;53.022;7.012;2022-08-07T15:13:06;4.15;;;1.67;;
54259;SDS011;40172;53.022;7.012;2022-08-07T15:15:40;3.50;;;1.65;;
54259;SDS011;40172;53.022;7.012;2022-08-07T15:18:10;4.50;;;1.60;;
54259;SDS011;40172;53.022;7.012;2022-08-07T15:20:39;2.45;;;1.50;;
54259;SDS011;40172;53.022;7.012;2022-08-07T15:23:08;3.50;;;1.80;;
54259;SDS011;40172;53.022;7.012;2022-08-07T15:25:38;2.75;;;1.88;;
54259;SDS011;40172;53.022;7.012;2022-08-07T15:28:09;2.22;;;1.67;;
54259;SDS011;40172;53.022;7.012;2022-08-07T15:30:36;1.73;;;1.42;;
54259;SDS011;40172;53.022;7.012;2022-08-07T15:33:03;3.80;;;1.80;;
54259;SDS011;40172;53.022;7.012;2022-08-07T15:35:30;3.35;;;1.60;;
54259;SDS011;40172;53.022;7.012;2022-08-07T15:37:58;4.95;;;1.90;;
54259;SDS011;40172;53.022;7.012;2022-08-07T15:40:27;2.30;;;1.42;;
54259;SDS011;40172;53.022;7.012;2022-08-07T15:42:56;3.45;;;1.90;;
54259;SDS011;40172;53.022;7.012;2022-08-07T15:45:41;4.13;;;1.83;;
54259;SDS011;40172;53.022;7.012;2022-08-07T15:50:37;11.10;;;1.75;;
54259;SDS011;40172;53.022;7.012;2022-08-07T15:53:09;3.35;;;1.77;;
54259;SDS011;40172;53.022;7.012;2022-08-07T15:55:38;3.65;;;1.65;;
54259;SDS011;40172;53.022;7.012;2022-08-07T15:58:14;2.53;;;1.60;;
54259;SDS011;40172;53.022;7.012;2022-08-07T16:00:41;5.25;;;1.75;;
54259;SDS011;40172;53.022;7.012;2022-08-07T16:03:13;4.57;;;1.90;;
54259;SDS011;40172;53.022;7.012;2022-08-07T16:05:46;5.15;;;1.80;;
54259;SDS011;40172;53.022;7.012;2022-08-07T16:08:15;3.83;;;1.75;;
54259;SDS011;40172;53.022;7.012;2022-08-07T16:10:46;4.28;;;1.80;;
54259;SDS011;40172;53.022;7.012;2022-08-07T16:13:41;3.40;;;1.85;;
54259;SDS011;40172;53.022;7.012;2022-08-07T16:19:07;5.18;;;1.80;;
54259;SDS011;40172;53.022;7.012;2022-08-07T16:24:54;5.88;;;2.20;;
54259;SDS011;40172;53.022;7.012;2022-08-07T16:27:25;3.13;;;2.30;;
54259;SDS011;40172;53.022;7.012;2022-08-07T16:32:33;2.85;;;1.90;;
54259;SDS011;40172;53.022;7.012;2022-08-07T16:37:43;3.70;;;2.03;;
54259;SDS011;40172;53.022;7.012;2022-08-07T16:51:59;4.55;;;1.90;;
54259;SDS011;40172;53.022;7.012;2022-08-07T16:54:58;5.25;;;1.70;;
54259;SDS011;40172;53.022;7.012;2022-08-07T17:00:18;5.85;;;1.85;;
54259;SDS011;40172;53.022;7.012;2022-08-07T17:10:57;8.75;;;1.85;;
54259;SDS011;40172;53.022;7.012;2022-08-07T17:13:31;17.52;;;2.30;;
54259;SDS011;40172;53.022;7.012;2022-08-07T17:18:41;10.10;;;2.40;;
54259;SDS011;40172;53.022;7.012;2022-08-07T17:21:22;8.00;;;1.90;;
54259;SDS011;40172;53.022;7.012;2022-08-07T17:26:53;7.45;;;1.98;;
54259;SDS011;40172;53.022;7.012;2022-08-07T17:35:26;12.82;;;2.35;;
54259;SDS011;40172;53.022;7.012;2022-08-07T17:40:27;5.85;;;1.70;;
54259;SDS011;40172;53.022;7.012;2022-08-07T17:43:18;3.85;;;1.77;;
54259;SDS011;40172;53.022;7.012;2022-08-07T17:48:25;15.80;;;2.50;;
54259;SDS011;40172;53.022;7.012;2022-08-07T17:51:03;5.72;;;2.08;;
54259;SDS011;40172;53.022;7.012;2022-08-07T17:53:50;5.57;;;1.83;;
54259;SDS011;40172;53.022;7.012;2022-08-07T17:56:41;11.27;;;2.10;;
54259;SDS011;40172;53.022;7.012;2022-08-07T17:59:18;19.92;;;2.60;;
54259;SDS011;40172;53.022;7.012;2022-08-07T18:02:03;5.53;;;2.15;;
54259;SDS011;40172;53.022;7.012;2022-08-07T18:04:46;12.23;;;2.20;;
54259;SDS011;40172;53.022;7.012;2022-08-07T18:16:02;5.13;;;1.70;;
54259;SDS011;40172;53.022;7.012;2022-08-07T18:18:51;13.18;;;2.40;;
54259;SDS011;40172;53.022;7.012;2022-08-07T18:21:23;7.72;;;2.28;;
54259;SDS011;40172;53.022;7.012;2022-08-07T18:23:59;5.68;;;2.40;;
54259;SDS011;40172;53.022;7.012;2022-08-07T18:30:06;9.60;;;2.95;;